Time;durP1;ratioP1;P1;durP2;ratioP2;P2;SDS_P1;SDS_P2;PMS_P1;PMS_P2;Temp;Humidity;BMP_temperature;BMP_pressure;BME280_temperature;BME280_humidity;BME280_pressure;Samples;Min_cycle;Max_cycle;Signal;HPM_P1;HPM_P2
2022/08/08 00:01:39;;;;;;;6.53;4.05;;;17.40;79.00;;;;;;5129172;27;20227;-86
2022/08/08 00:04:12;;;;;;;5.18;4.10;;;17.30;78.90;;;;;;5120160;27;20290;-87
2022/08/08 00:06:48;;;;;;;3.92;3.63;;;17.30;78.90;;;;;;5133476;27;20234;-86
2022/08/08 00:09:40;;;;;;;4.20;3.80;;;17.70;78.70;;;;;;5129133;27;20568;-86
2022/08/08 00:12:12;;;;;;;4.70;3.53;;;18.30;73.50;;;;;;5117817;27;20204;-87
2022/08/08 00:14:49;;;;;;;3.67;3.30;;;18.10;70.90;;;;;;5115490;27;20548;-86
2022/08/08 00:17:23;;;;;;;3.83;3.53;;;17.60;71.80;;;;;;5127546;28;20657;-87
2022/08/08 00:19:55;;;;;;;4.00;3.10;;;17.30;75.50;;;;;;5116408;28;20650;-86
2022/08/08 00:22:30;;;;;;;3.80;3.50;;;17.30;78.90;;;;;;5114784;27;20200;-86
2022/08/08 00:25:01;;;;;;;4.57;3.40;;;17.50;77.20;;;;;;5131457;28;20661;-86
2022/08/08 00:27:29;;;;;;;4.68;4.00;;;17.50;77.40;;;;;;5126591;27;21361;-87
2022/08/08 00:30:02;;;;;;;3.67;3.38;;;17.50;76.60;;;;;;5124481;27;20200;-87
2022/08/08 00:32:35;;;;;;;3.97;3.20;;;17.40;76.10;;;;;;5128043;27;20210;-86
2022/08/08 00:35:22;;;;;;;3.60;3.00;;;17.50;75.10;;;;;;5143996;27;20203;-87
2022/08/08 00:38:08;;;;;;;3.83;3.47;;;17.40;74.60;;;;;;5129797;27;20579;-87
2022/08/08 00:40:54;;;;;;;3.63;3.10;;;17.80;74.90;;;;;;5139021;27;20212;-86
2022/08/08 00:43:56;;;;;;;4.13;3.30;;;17.90;68.90;;;;;;5140013;27;20195;-86
2022/08/08 00:46:55;;;;;;;3.70;3.40;;;17.80;70.30;;;;;;5136634;27;20202;-86
2022/08/08 00:49:43;;;;;;;4.22;3.30;;;17.60;71.00;;;;;;5128764;27;20207;-86
2022/08/08 00:52:35;;;;;;;3.50;3.20;;;17.70;71.30;;;;;;5072193;28;20193;-87
2022/08/08 00:55:19;;;;;;;3.65;3.30;;;17.50;70.90;;;;;;5074968;28;20208;-87
2022/08/08 00:58:25;;;;;;;3.75;3.25;;;17.30;74.10;;;;;;5076277;28;20592;-87
2022/08/08 01:01:01;;;;;;;3.95;3.20;;;17.70;73.10;;;;;;5072206;28;20209;-87
2022/08/08 01:04:09;;;;;;;4.40;3.30;;;17.90;70.50;;;;;;5073027;28;20207;-87
2022/08/08 01:07:30;;;;;;;5.63;2.95;;;17.80;70.40;;;;;;5062904;28;20705;-86
2022/08/08 01:10:37;;;;;;;3.75;3.00;;;17.70;70.60;;;;;;5074529;28;20612;-87
2022/08/08 01:13:42;;;;;;;4.90;3.35;;;17.40;72.10;;;;;;5077046;28;20201;-87
2022/08/08 01:16:34;;;;;;;3.10;2.80;;;17.10;75.50;;;;;;5069395;28;20660;-87
2022/08/08 01:19:34;;;;;;;3.47;3.17;;;16.80;77.70;;;;;;5070778;28;20201;-86
2022/08/08 01:22:48;;;;;;;3.60;3.30;;;16.80;78.60;;;;;;4989436;28;20215;-86
2022/08/08 01:26:05;;;;;;;3.67;3.38;;;16.90;78.60;;;;;;4990063;28;20208;-86
2022/08/08 01:29:03;;;;;;;4.07;3.70;;;17.60;76.80;;;;;;4950715;28;20229;-87
2022/08/08 01:32:00;;;;;;;4.00;3.60;;;17.40;75.20;;;;;;5011682;28;20210;-86
2022/08/08 01:35:06;;;;;;;5.18;3.40;;;17.10;78.80;;;;;;5005230;28;20207;-86
2022/08/08 01:38:27;;;;;;;4.80;3.42;;;17.30;77.80;;;;;;4947111;29;20209;-87
2022/08/08 01:41:02;;;;;;;3.92;3.50;;;17.40;76.00;;;;;;4928559;29;20199;-86
2022/08/08 01:43:47;;;;;;;3.70;3.40;;;17.40;78.70;;;;;;4931500;29;20228;-87
2022/08/08 01:46:29;;;;;;;4.45;3.35;;;17.60;75.40;;;;;;4928645;29;20685;-87
2022/08/08 01:49:14;;;;;;;3.60;3.25;;;17.30;75.00;;;;;;4931187;29;20210;-87
2022/08/08 01:51:53;;;;;;;5.20;3.45;;;17.10;78.80;;;;;;4932335;29;20245;-87
2022/08/08 01:54:31;;;;;;;3.38;3.10;;;17.10;78.80;;;;;;4933233;29;20202;-87
2022/08/08 01:57:13;;;;;;;3.53;3.22;;;17.00;78.20;;;;;;4930332;29;20237;-87
2022/08/08 01:59:55;;;;;;;4.38;3.20;;;16.60;79.00;;;;;;5023594;28;20846;-87
2022/08/08 02:02:36;;;;;;;3.72;3.42;;;16.60;79.00;;;;;;5064327;28;20671;-86
2022/08/08 02:05:15;;;;;;;3.60;3.20;;;16.60;80.40;;;;;;5068376;28;20204;-87
2022/08/08 02:08:00;;;;;;;3.65;3.33;;;16.50;81.80;;;;;;5062141;28;20216;-87
2022/08/08 02:10:43;;;;;;;3.67;3.30;;;16.60;79.30;;;;;;5063291;28;20197;-87
2022/08/08 02:13:15;;;;;;;4.78;3.28;;;16.50;80.70;;;;;;5059481;28;20220;-87
2022/08/08 02:15:49;;;;;;;3.53;3.22;;;16.40;80.10;;;;;;5127340;27;20709;-87
2022/08/08 02:18:24;;;;;;;5.07;3.33;;;16.50;81.90;;;;;;5119801;27;20618;-87
2022/08/08 02:23:47;;;;;;;4.65;3.33;;;16.50;78.30;;;;;;5134622;27;20702;-87
2022/08/08 02:26:21;;;;;;;5.15;3.30;;;16.50;79.30;;;;;;5130441;27;20203;-86
2022/08/08 02:29:10;;;;;;;5.32;3.80;;;16.60;78.40;;;;;;5131268;27;20641;-86
2022/08/08 02:32:03;;;;;;;3.47;3.08;;;16.70;78.50;;;;;;5134036;27;20206;-87
2022/08/08 02:34:48;;;;;;;4.18;3.33;;;17.00;77.20;;;;;;5131645;27;20244;-86
2022/08/08 02:37:23;;;;;;;3.45;3.10;;;16.90;76.80;;;;;;5142114;27;20218;-87
2022/08/08 02:42:46;;;;;;;3.47;3.17;;;16.40;79.90;;;;;;5128668;27;20686;-87
2022/08/08 02:45:57;;;;;;;3.47;3.20;;;16.50;80.60;;;;;;5128200;27;20584;-87
2022/08/08 02:48:56;;;;;;;3.47;3.17;;;16.90;78.60;;;;;;5131494;27;20227;-87
2022/08/08 02:52:05;;;;;;;4.03;3.30;;;16.60;75.90;;;;;;5147864;27;20210;-87
2022/08/08 02:54:52;;;;;;;3.60;3.28;;;16.30;78.20;;;;;;5056354;28;20680;-87
2022/08/08 02:57:55;;;;;;;3.88;3.53;;;16.30;79.00;;;;;;5047056;28;20222;-87
2022/08/08 03:00:59;;;;;;;3.60;3.30;;;16.30;78.20;;;;;;5054387;28;20579;-86
2022/08/08 03:04:08;;;;;;;3.50;2.97;;;16.40;78.30;;;;;;5054837;28;20204;-87
2022/08/08 03:07:18;;;;;;;5.25;3.40;;;16.60;78.40;;;;;;4999573;28;20207;-87
2022/08/08 03:10:21;;;;;;;3.25;3.00;;;16.50;75.80;;;;;;4990683;28;20210;-87
2022/08/08 03:13:20;;;;;;;3.28;2.95;;;16.20;78.10;;;;;;4941031;29;20712;-87
2022/08/08 03:16:07;;;;;;;3.63;2.97;;;16.00;79.00;;;;;;4940054;28;20216;-87
2022/08/08 03:18:45;;;;;;;3.38;3.08;;;16.10;78.10;;;;;;4934174;29;20204;-87
2022/08/08 03:21:11;;;;;;;4.03;3.00;;;16.10;78.10;;;;;;4939685;29;20235;-86
2022/08/08 03:23:39;;;;;;;3.33;3.03;;;16.10;78.50;;;;;;4941295;28;20264;-87
2022/08/08 03:26:06;;;;;;;5.50;3.20;;;16.20;79.00;;;;;;4942402;28;20264;-86
2022/08/08 03:28:41;;;;;;;3.53;3.00;;;16.70;77.10;;;;;;4936905;29;20654;-86
2022/08/08 03:33:48;;;;;;;2.83;2.53;;;16.90;74.00;;;;;;5018430;28;20202;-86
2022/08/08 03:36:16;;;;;;;3.50;2.95;;;17.00;74.60;;;;;;5026082;28;20297;-86
2022/08/08 03:38:48;;;;;;;3.72;2.85;;;17.00;74.40;;;;;;5024799;28;20206;-86
2022/08/08 03:41:15;;;;;;;3.28;2.97;;;17.20;73.20;;;;;;5023549;28;20206;-86
2022/08/08 03:43:42;;;;;;;3.40;3.10;;;17.30;70.00;;;;;;5063430;28;20224;-86
2022/08/08 03:46:08;;;;;;;3.20;2.90;;;17.10;70.60;;;;;;5088988;28;20738;-86
2022/08/08 03:48:35;;;;;;;3.40;3.10;;;16.80;73.60;;;;;;5078133;28;20686;-86
2022/08/08 03:51:06;;;;;;;5.30;3.33;;;16.60;75.20;;;;;;5122162;27;20206;-86
2022/08/08 03:53:36;;;;;;;3.63;3.33;;;16.20;77.70;;;;;;5122012;27;20680;-86
2022/08/08 03:56:04;;;;;;;3.22;2.92;;;16.10;78.10;;;;;;5131673;27;20219;-86
2022/08/08 03:58:38;;;;;;;3.40;3.10;;;16.10;78.10;;;;;;5129949;27;20195;-86
2022/08/08 04:01:05;;;;;;;3.60;3.30;;;16.00;79.00;;;;;;5127161;27;20577;-87
2022/08/08 04:03:35;;;;;;;3.92;3.10;;;15.80;80.00;;;;;;5124557;27;20200;-86
2022/08/08 04:06:05;;;;;;;4.43;3.30;;;15.90;81.80;;;;;;5136386;27;20210;-86
2022/08/08 04:08:31;;;;;;;3.80;3.40;;;16.60;78.40;;;;;;5135292;27;20210;-86
2022/08/08 04:11:01;;;;;;;3.40;3.10;;;16.90;75.40;;;;;;5154544;27;20270;-86
2022/08/08 04:13:30;;;;;;;3.50;3.20;;;16.70;76.20;;;;;;5136695;27;20205;-87
2022/08/08 04:15:57;;;;;;;3.47;3.17;;;16.60;75.90;;;;;;5134587;27;20563;-86
2022/08/08 04:18:24;;;;;;;3.70;3.08;;;16.40;78.30;;;;;;5126214;27;20203;-87
2022/08/08 04:20:51;;;;;;;4.10;3.20;;;16.70;78.50;;;;;;5130491;27;20234;-87
2022/08/08 04:23:17;;;;;;;3.45;3.05;;;17.00;75.40;;;;;;5125253;27;20199;-87
2022/08/08 04:25:44;;;;;;;3.35;2.88;;;16.90;74.90;;;;;;5124977;27;20591;-87
2022/08/08 04:28:11;;;;;;;5.25;3.10;;;16.70;75.90;;;;;;5121327;27;20677;-87
2022/08/08 04:30:40;;;;;;;3.40;3.10;;;16.40;78.30;;;;;;5123357;27;20208;-87
2022/08/08 04:33:06;;;;;;;4.07;3.78;;;16.10;79.70;;;;;;5133384;27;20658;-86
2022/08/08 04:35:38;;;;;;;3.60;3.30;;;16.10;80.40;;;;;;5138347;27;20195;-86
2022/08/08 04:38:05;;;;;;;4.22;3.30;;;16.30;78.20;;;;;;5137412;27;20223;-87
2022/08/08 04:40:32;;;;;;;3.17;2.88;;;16.40;78.30;;;;;;5128190;27;20199;-86
2022/08/08 04:42:59;;;;;;;4.13;3.55;;;16.70;78.50;;;;;;5127031;27;20210;-87
2022/08/08 04:45:26;;;;;;;5.18;3.38;;;16.50;78.30;;;;;;5128814;27;20220;-87
2022/08/08 04:47:58;;;;;;;3.70;3.40;;;16.30;79.10;;;;;;5129183;27;20200;-87
2022/08/08 04:50:25;;;;;;;3.40;3.00;;;16.30;79.30;;;;;;5132266;27;20203;-87
2022/08/08 04:52:52;;;;;;;3.63;3.33;;;17.00;78.10;;;;;;5134677;27;20215;-87
2022/08/08 04:55:19;;;;;;;3.60;3.00;;;17.40;73.60;;;;;;5143426;27;20206;-86
2022/08/08 04:57:46;;;;;;;3.67;3.38;;;17.60;69.80;;;;;;5137673;27;20235;-87
2022/08/08 05:00:14;;;;;;;3.80;3.40;;;17.30;70.90;;;;;;5142399;27;20216;-87
2022/08/08 05:02:41;;;;;;;3.70;3.40;;;16.80;75.90;;;;;;5145367;27;20215;-87
2022/08/08 05:05:10;;;;;;;3.80;3.15;;;16.50;78.30;;;;;;5144899;27;20214;-87
2022/08/08 05:07:37;;;;;;;4.07;3.67;;;16.20;81.80;;;;;;5146900;27;20202;-87
2022/08/08 05:10:05;;;;;;;4.30;3.90;;;15.90;84.50;;;;;;5137619;27;20203;-87
2022/08/08 05:12:32;;;;;;;9.15;6.88;;;15.80;87.00;;;;;;5132827;27;20202;-87
2022/08/08 05:14:59;;;;;;;7.30;6.50;;;15.90;86.40;;;;;;5136823;27;20258;-87
2022/08/08 05:17:37;;;;;;;5.20;4.40;;;15.90;85.50;;;;;;5144818;27;20226;-86
2022/08/08 05:20:05;;;;;;;5.65;5.00;;;15.90;86.30;;;;;;5134821;27;20198;-87
2022/08/08 05:22:40;;;;;;;27.95;24.13;;;15.80;86.30;;;;;;5136135;27;20633;-86
2022/08/08 05:25:09;;;;;;;11.73;10.32;;;15.90;87.50;;;;;;5137813;27;20201;-87
2022/08/08 05:27:38;;;;;;;5.03;4.53;;;16.00;85.90;;;;;;5137551;27;20646;-87
2022/08/08 05:30:08;;;;;;;5.47;4.20;;;16.00;85.80;;;;;;5125944;27;20212;-87
2022/08/08 05:32:38;;;;;;;5.60;4.18;;;15.90;85.00;;;;;;5128294;27;20241;-87
2022/08/08 05:35:09;;;;;;;5.47;4.10;;;15.90;84.10;;;;;;5131142;27;20210;-86
2022/08/08 05:37:40;;;;;;;4.03;3.63;;;16.00;83.20;;;;;;5132310;27;20619;-87
2022/08/08 05:40:10;;;;;;;5.10;4.47;;;16.00;82.50;;;;;;5127333;27;20204;-86
2022/08/08 05:42:40;;;;;;;9.00;7.72;;;16.10;82.90;;;;;;5135149;27;20209;-87
2022/08/08 05:45:09;;;;;;;7.72;6.50;;;16.20;83.70;;;;;;5136569;27;20276;-86
2022/08/08 05:47:37;;;;;;;8.05;5.07;;;16.60;83.30;;;;;;5126937;27;20199;-86
2022/08/08 05:50:06;;;;;;;5.68;4.05;;;16.70;81.80;;;;;;5127772;27;20711;-87
2022/08/08 05:52:34;;;;;;;5.38;3.90;;;16.70;80.80;;;;;;5136743;27;20566;-87
2022/08/08 05:55:01;;;;;;;5.70;4.72;;;16.80;78.60;;;;;;5135180;27;20207;-86
2022/08/08 05:57:33;;;;;;;5.65;5.00;;;16.90;78.60;;;;;;5127550;27;20682;-86
2022/08/08 06:00:04;;;;;;;4.10;3.60;;;16.80;78.60;;;;;;5120552;27;20204;-86
2022/08/08 06:05:19;;;;;;;4.47;3.70;;;17.10;75.80;;;;;;5127853;27;20206;-87
2022/08/08 06:07:47;;;;;;;4.53;3.88;;;17.30;72.70;;;;;;5122642;27;20210;-86
2022/08/08 06:10:14;;;;;;;14.52;11.25;;;17.40;73.30;;;;;;5125543;27;20191;-86
2022/08/08 06:12:43;;;;;;;4.72;4.20;;;17.60;75.00;;;;;;5133299;27;20200;-86
2022/08/08 06:15:11;;;;;;;20.20;18.05;;;17.60;73.50;;;;;;5119229;27;20565;-86
2022/08/08 06:17:40;;;;;;;21.17;17.63;;;17.70;73.00;;;;;;5126624;27;20215;-87
2022/08/08 06:20:09;;;;;;;15.55;13.60;;;17.80;71.80;;;;;;5121144;27;20567;-86
2022/08/08 06:22:36;;;;;;;6.85;4.40;;;18.00;70.30;;;;;;5123191;27;20660;-87
2022/08/08 06:25:04;;;;;;;5.85;4.32;;;18.00;69.20;;;;;;5123653;27;20199;-87
2022/08/08 06:27:39;;;;;;;3.63;3.33;;;18.00;66.70;;;;;;5128084;27;20290;-86
2022/08/08 06:30:10;;;;;;;3.45;3.05;;;18.00;67.90;;;;;;5135590;27;20254;-86
2022/08/08 06:32:42;;;;;;;3.97;3.42;;;18.00;67.10;;;;;;5130154;27;20203;-87
2022/08/08 06:35:12;;;;;;;4.70;4.20;;;18.10;66.30;;;;;;5128789;27;20720;-86
2022/08/08 06:37:44;;;;;;;4.55;3.92;;;18.10;67.60;;;;;;5137515;27;20225;-86
2022/08/08 06:40:13;;;;;;;5.03;4.25;;;18.30;66.30;;;;;;5133785;27;20199;-87
2022/08/08 06:42:44;;;;;;;4.75;3.60;;;18.50;64.50;;;;;;5135894;27;20219;-86
2022/08/08 06:45:13;;;;;;;6.20;4.90;;;18.50;64.20;;;;;;5148284;27;20303;-87
2022/08/08 06:47:41;;;;;;;8.23;4.70;;;18.60;62.50;;;;;;5136218;27;20199;-86
2022/08/08 06:50:14;;;;;;;9.45;5.60;;;18.60;59.80;;;;;;5132050;27;20205;-87
2022/08/08 06:52:41;;;;;;;9.23;6.70;;;18.60;63.70;;;;;;5138811;27;20704;-87
2022/08/08 06:55:08;;;;;;;5.40;4.30;;;18.70;63.20;;;;;;5143831;27;20205;-87
2022/08/08 06:57:35;;;;;;;5.50;4.68;;;18.70;64.80;;;;;;5137396;27;20223;-87
2022/08/08 07:00:05;;;;;;;5.03;4.50;;;18.70;62.90;;;;;;5130937;27;20203;-86
2022/08/08 07:02:35;;;;;;;5.03;4.53;;;18.80;64.90;;;;;;5120483;27;20726;-87
2022/08/08 07:05:07;;;;;;;5.35;4.63;;;18.90;62.90;;;;;;5126780;27;20199;-86
2022/08/08 07:07:45;;;;;;;6.22;5.18;;;18.90;61.10;;;;;;5123431;27;20191;-86
2022/08/08 07:10:12;;;;;;;7.30;4.82;;;19.00;61.00;;;;;;5118440;27;20649;-87
2022/08/08 07:12:41;;;;;;;6.70;4.80;;;19.10;59.90;;;;;;5121710;27;20211;-87
2022/08/08 07:15:09;;;;;;;5.32;4.30;;;19.30;57.90;;;;;;5122928;27;20237;-87
2022/08/08 07:17:46;;;;;;;5.00;4.50;;;19.40;56.40;;;;;;5119398;27;20709;-87
2022/08/08 07:20:18;;;;;;;8.93;4.65;;;19.30;57.90;;;;;;5123113;27;20195;-87
2022/08/08 07:22:53;;;;;;;6.65;4.40;;;19.40;55.40;;;;;;5124323;27;20197;-86
2022/08/08 07:25:22;;;;;;;4.57;4.18;;;19.40;56.60;;;;;;5117060;27;20642;-86
2022/08/08 07:27:51;;;;;;;5.20;3.90;;;19.50;56.60;;;;;;5121061;27;20203;-85
2022/08/08 07:30:18;;;;;;;4.80;3.63;;;19.70;55.60;;;;;;5122484;27;20208;-87
2022/08/08 07:32:48;;;;;;;6.82;3.88;;;19.90;55.80;;;;;;5124159;27;20199;-90
2022/08/08 07:35:15;;;;;;;5.68;4.07;;;20.00;56.00;;;;;;5120205;27;20643;-87
2022/08/08 07:37:43;;;;;;;6.55;3.80;;;19.90;55.80;;;;;;5123107;27;20581;-87
2022/08/08 07:40:16;;;;;;;4.78;3.63;;;20.00;55.80;;;;;;5117900;27;20200;-87
2022/08/08 07:42:53;;;;;;;4.63;3.38;;;20.10;56.00;;;;;;5122870;27;20200;-87
2022/08/08 07:45:26;;;;;;;4.05;3.65;;;20.20;53.10;;;;;;5126667;27;20215;-87
2022/08/08 07:47:58;;;;;;;5.93;4.07;;;20.30;52.30;;;;;;5131391;27;20239;-84
2022/08/08 07:50:25;;;;;;;5.00;3.40;;;20.40;52.20;;;;;;5139057;27;20233;-84
2022/08/08 07:52:56;;;;;;;5.43;3.50;;;20.30;53.00;;;;;;5133720;27;20603;-83
2022/08/08 07:55:25;;;;;;;3.95;3.35;;;20.30;52.00;;;;;;5138897;27;20190;-84
2022/08/08 07:58:16;;;;;;;3.92;3.45;;;20.20;52.30;;;;;;5124014;27;20243;-83
2022/08/08 08:01:03;;;;;;;5.78;3.78;;;20.40;51.50;;;;;;5132161;27;20202;-84
2022/08/08 08:03:36;;;;;;;11.18;3.50;;;20.40;55.30;;;;;;5128061;27;20853;-84
2022/08/08 08:06:11;;;;;;;5.88;3.75;;;20.70;46.90;;;;;;5135569;27;20199;-84
2022/08/08 08:08:39;;;;;;;5.78;3.22;;;20.80;47.50;;;;;;5141724;27;20209;-84
2022/08/08 08:11:23;;;;;;;4.47;3.22;;;20.90;47.40;;;;;;5132998;27;20188;-84
2022/08/08 08:13:55;;;;;;;5.55;3.10;;;21.00;45.80;;;;;;5138347;27;20303;-84
2022/08/08 08:16:23;;;;;;;3.90;2.92;;;21.20;43.70;;;;;;5135851;27;20610;-84
2022/08/08 08:18:56;;;;;;;3.30;2.88;;;21.50;42.70;;;;;;5145420;27;20601;-83
2022/08/08 08:21:25;;;;;;;3.33;3.03;;;21.60;41.90;;;;;;5139024;27;20189;-84
2022/08/08 08:23:52;;;;;;;4.90;2.88;;;21.80;41.90;;;;;;5133183;27;20550;-82
2022/08/08 08:26:20;;;;;;;2.70;2.50;;;22.00;36.80;;;;;;5129856;27;20565;-82
2022/08/08 08:28:50;;;;;;;3.10;2.72;;;22.00;35.10;;;;;;5127035;27;20200;-83
2022/08/08 08:31:17;;;;;;;4.85;2.58;;;21.90;36.80;;;;;;5130428;27;20546;-83
2022/08/08 08:33:44;;;;;;;4.03;2.70;;;22.10;35.50;;;;;;5134656;27;20191;-84
2022/08/08 08:36:17;;;;;;;3.63;2.53;;;22.00;38.40;;;;;;5131061;27;20200;-84
2022/08/08 08:38:44;;;;;;;3.08;2.45;;;22.10;34.80;;;;;;5132310;27;20337;-84
2022/08/08 08:41:12;;;;;;;4.07;2.20;;;22.20;33.20;;;;;;5127885;27;20212;-82
2022/08/08 08:43:45;;;;;;;2.40;2.20;;;22.10;31.10;;;;;;5134172;27;20226;-83
2022/08/08 08:46:28;;;;;;;4.53;2.55;;;22.20;31.50;;;;;;5135478;27;20212;-83
2022/08/08 08:48:55;;;;;;;3.28;2.60;;;22.20;32.00;;;;;;5133841;27;20204;-83
2022/08/08 08:51:27;;;;;;;5.18;2.50;;;22.10;31.20;;;;;;5131011;27;20211;-83
2022/08/08 08:54:07;;;;;;;3.38;2.03;;;22.30;30.90;;;;;;5132267;27;20184;-83
2022/08/08 08:56:38;;;;;;;3.92;2.30;;;22.50;31.20;;;;;;5127587;28;20233;-83
2022/08/08 08:59:10;;;;;;;3.15;2.15;;;22.80;29.20;;;;;;5127946;27;20229;-81
2022/08/08 09:01:41;;;;;;;2.58;2.17;;;23.30;28.70;;;;;;5129947;28;20206;-81
2022/08/08 09:04:10;;;;;;;3.63;2.13;;;24.20;25.70;;;;;;5129558;27;20207;-81
2022/08/08 09:06:41;;;;;;;2.38;2.00;;;25.70;19.50;;;;;;5137507;27;20207;-81
2022/08/08 09:09:10;;;;;;;3.20;2.10;;;26.80;17.70;;;;;;5139447;27;20199;-81
2022/08/08 09:11:39;;;;;;;3.42;2.47;;;27.50;17.10;;;;;;5123696;27;20191;-84
2022/08/08 09:14:09;;;;;;;4.25;2.40;;;28.70;14.80;;;;;;5137027;27;20669;-84
2022/08/08 09:16:36;;;;;;;2.63;2.30;;;29.70;12.50;;;;;;5130942;27;20214;-84
2022/08/08 09:19:04;;;;;;;2.55;2.20;;;29.60;12.50;;;;;;5137371;27;20617;-85
2022/08/08 09:21:31;;;;;;;2.60;2.40;;;29.60;12.60;;;;;;5138799;27;20205;-84
2022/08/08 09:24:10;;;;;;;2.85;2.33;;;30.20;12.60;;;;;;5133535;27;20191;-86
2022/08/08 09:26:45;;;;;;;2.88;2.50;;;30.80;9.80;;;;;;5130243;27;20193;-85
2022/08/08 09:29:22;;;;;;;2.60;2.40;;;30.60;10.30;;;;;;5138128;27;20209;-85
2022/08/08 09:31:54;;;;;;;2.40;2.20;;;29.60;11.20;;;;;;5133789;27;20195;-84
2022/08/08 09:34:28;;;;;;;2.30;2.10;;;28.50;13.20;;;;;;5134598;27;20198;-85
2022/08/08 09:37:02;;;;;;;3.53;2.30;;;27.40;15.30;;;;;;5135996;27;20215;-85
2022/08/08 09:39:41;;;;;;;3.92;2.40;;;27.70;15.50;;;;;;5129065;27;20221;-86
2022/08/08 09:42:13;;;;;;;2.53;2.28;;;28.20;15.40;;;;;;5135453;27;20206;-85
2022/08/08 09:44:53;;;;;;;5.18;2.65;;;29.10;14.00;;;;;;5130576;27;20671;-84
2022/08/08 09:47:22;;;;;;;3.90;2.30;;;29.40;11.30;;;;;;5134033;27;20197;-85
2022/08/08 09:49:50;;;;;;;2.22;2.03;;;28.70;12.20;;;;;;5126560;27;20202;-84
2022/08/08 09:52:23;;;;;;;4.05;2.40;;;28.70;13.50;;;;;;5124262;27;20568;-86
2022/08/08 09:54:58;;;;;;;3.05;2.42;;;28.60;14.30;;;;;;5126817;27;20199;-85
2022/08/08 09:57:32;;;;;;;3.60;2.38;;;28.70;14.20;;;;;;5130233;27;20648;-86
2022/08/08 10:00:07;;;;;;;2.63;2.40;;;29.00;13.00;;;;;;5119587;27;20231;-85
2022/08/08 10:02:36;;;;;;;2.55;2.35;;;29.80;11.80;;;;;;5130389;27;20198;-85
2022/08/08 10:05:05;;;;;;;5.35;2.80;;;31.30;9.20;;;;;;5124212;27;20195;-85
2022/08/08 10:07:32;;;;;;;2.72;2.50;;;31.90;7.10;;;;;;5122144;27;20220;-87
2022/08/08 10:10:28;;;;;;;3.85;2.47;;;32.30;6.20;;;;;;5118908;27;20199;-85
2022/08/08 10:13:18;;;;;;;3.05;2.30;;;33.20;4.90;;;;;;5121050;27;20186;-85
2022/08/08 10:15:47;;;;;;;2.88;2.55;;;32.80;6.00;;;;;;5123448;27;20188;-86
2022/08/08 10:18:24;;;;;;;2.70;2.50;;;31.60;7.80;;;;;;5126191;27;20255;-85
2022/08/08 10:21:04;;;;;;;2.42;2.22;;;31.30;9.20;;;;;;5130403;27;20216;-85
2022/08/08 10:23:41;;;;;;;2.88;2.67;;;32.60;6.50;;;;;;5116793;27;20618;-86
2022/08/08 10:26:15;;;;;;;2.97;2.50;;;32.90;6.80;;;;;;5132955;27;20195;-87
2022/08/08 10:28:52;;;;;;;2.42;2.22;;;32.10;6.50;;;;;;5130832;27;20201;-87
2022/08/08 10:34:09;;;;;;;3.25;2.20;;;29.70;9.20;;;;;;5125174;27;20542;-88
2022/08/08 10:36:40;;;;;;;2.63;2.25;;;30.60;8.70;;;;;;5128268;27;20199;-87
2022/08/08 10:39:10;;;;;;;2.38;2.17;;;31.20;7.50;;;;;;5132533;27;20226;-87
2022/08/08 10:41:39;;;;;;;5.00;3.75;;;31.00;7.50;;;;;;5133534;27;20652;-87
2022/08/08 10:44:11;;;;;;;3.90;2.60;;;31.30;7.70;;;;;;5133981;27;20210;-87
2022/08/08 10:46:38;;;;;;;2.83;2.42;;;31.00;7.50;;;;;;5132413;27;20654;-87
2022/08/08 10:49:05;;;;;;;4.35;2.47;;;30.20;9.00;;;;;;5136499;27;20206;-87
2022/08/08 10:51:38;;;;;;;2.58;2.38;;;28.80;12.90;;;;;;5127486;27;20290;-87
2022/08/08 10:54:05;;;;;;;4.93;2.65;;;29.20;11.50;;;;;;5123278;27;20210;-86
2022/08/08 10:56:34;;;;;;;2.63;2.33;;;30.70;10.20;;;;;;5127602;27;20408;-85
2022/08/08 10:59:06;;;;;;;3.15;2.60;;;30.90;9.10;;;;;;5138703;27;20222;-86
2022/08/08 11:01:33;;;;;;;4.10;2.40;;;30.40;9.40;;;;;;5137302;27;20270;-85
2022/08/08 11:04:06;;;;;;;3.08;2.60;;;29.30;11.40;;;;;;5131435;27;20259;-85
2022/08/08 11:06:35;;;;;;;2.70;2.45;;;28.00;15.60;;;;;;5128703;27;20548;-87
2022/08/08 11:09:04;;;;;;;3.33;2.50;;;27.70;14.30;;;;;;5127330;27;20232;-86
2022/08/08 11:11:38;;;;;;;2.50;2.30;;;27.60;15.00;;;;;;5126687;27;20593;-86
2022/08/08 11:14:07;;;;;;;3.10;2.42;;;27.50;14.80;;;;;;5125642;27;20601;-87
2022/08/08 11:16:35;;;;;;;3.55;2.38;;;27.20;15.30;;;;;;5136385;27;20206;-87
2022/08/08 11:19:04;;;;;;;2.60;2.30;;;27.50;15.40;;;;;;5127565;27;20218;-87
2022/08/08 11:21:35;;;;;;;3.97;2.30;;;27.50;13.60;;;;;;5134786;27;20205;-87
2022/08/08 11:24:05;;;;;;;5.90;2.88;;;27.80;13.30;;;;;;5134360;27;20195;-83
2022/08/08 11:26:35;;;;;;;2.60;2.40;;;27.90;14.40;;;;;;5144493;27;20205;-84
2022/08/08 11:29:04;;;;;;;3.35;2.30;;;27.50;15.40;;;;;;5147948;27;20202;-84
2022/08/08 11:31:36;;;;;;;4.75;2.42;;;27.80;13.70;;;;;;5146816;27;20570;-84
2022/08/08 11:34:05;;;;;;;3.60;2.10;;;27.40;15.30;;;;;;5136984;27;20206;-83
2022/08/08 11:36:32;;;;;;;4.32;2.17;;;27.40;15.30;;;;;;5141899;27;20199;-85
2022/08/08 11:39:00;;;;;;;3.22;2.30;;;27.20;13.60;;;;;;5136808;27;20226;-85
2022/08/08 11:41:28;;;;;;;4.10;2.88;;;27.10;13.80;;;;;;5137385;27;20221;-83
2022/08/08 11:43:55;;;;;;;3.47;2.10;;;26.90;15.10;;;;;;5136175;27;20222;-84
2022/08/08 11:46:24;;;;;;;3.13;2.33;;;26.90;15.40;;;;;;5129608;27;20201;-84
2022/08/08 11:48:53;;;;;;;3.13;2.38;;;26.90;15.10;;;;;;5138753;27;20352;-84
2022/08/08 11:51:22;;;;;;;2.40;2.20;;;26.60;16.10;;;;;;5144685;27;20206;-83
2022/08/08 11:53:51;;;;;;;2.80;2.08;;;26.60;15.00;;;;;;5147845;27;20195;-84
2022/08/08 11:56:22;;;;;;;2.72;2.10;;;26.60;14.90;;;;;;5140673;27;20202;-88
2022/08/08 11:58:49;;;;;;;2.00;1.90;;;26.50;14.90;;;;;;5133016;27;20543;-84
2022/08/08 12:01:17;;;;;;;4.03;2.05;;;26.60;14.90;;;;;;5132962;27;20205;-84
2022/08/08 12:03:46;;;;;;;4.93;2.17;;;26.60;15.00;;;;;;5135359;27;20206;-84
2022/08/08 12:06:16;;;;;;;4.10;2.80;;;26.50;14.90;;;;;;5133791;27;20683;-87
2022/08/08 12:08:44;;;;;;;4.43;2.50;;;26.40;15.20;;;;;;5125828;27;20211;-84
2022/08/08 12:11:12;;;;;;;2.92;2.33;;;26.50;16.00;;;;;;5124068;27;20649;-84
2022/08/08 12:13:40;;;;;;;3.67;2.10;;;26.70;15.00;;;;;;5130121;27;20200;-83
2022/08/08 12:16:10;;;;;;;2.67;2.10;;;26.60;14.90;;;;;;5128119;27;20204;-88
2022/08/08 12:18:46;;;;;;;3.03;2.30;;;26.50;14.90;;;;;;5120755;27;20191;-86
2022/08/08 12:21:23;;;;;;;3.45;2.20;;;26.40;14.90;;;;;;5129958;27;20286;-87
2022/08/08 12:23:50;;;;;;;3.70;2.33;;;26.20;15.20;;;;;;5125931;28;20206;-87
2022/08/08 12:26:23;;;;;;;2.90;2.20;;;26.40;16.80;;;;;;5119043;27;20206;-88
2022/08/08 12:28:57;;;;;;;3.40;2.20;;;26.60;15.00;;;;;;5126504;27;20223;-83
2022/08/08 12:31:33;;;;;;;4.90;2.10;;;26.60;14.90;;;;;;5130002;27;20203;-82
2022/08/08 12:34:01;;;;;;;2.58;2.28;;;26.50;14.90;;;;;;5134950;27;20198;-82
2022/08/08 12:36:40;;;;;;;4.50;2.45;;;26.50;15.90;;;;;;5123359;27;20199;-84
2022/08/08 12:39:07;;;;;;;3.63;2.30;;;26.80;15.00;;;;;;5119857;27;20212;-82
2022/08/08 12:41:35;;;;;;;3.83;2.47;;;26.90;15.10;;;;;;5124963;27;20201;-83
2022/08/08 12:44:06;;;;;;;3.25;1.85;;;27.10;15.20;;;;;;5119673;27;20234;-83
2022/08/08 12:46:39;;;;;;;6.40;2.28;;;27.40;15.10;;;;;;5118683;27;20219;-83
2022/08/08 12:49:06;;;;;;;2.35;2.15;;;27.10;15.20;;;;;;5122122;27;20263;-83
2022/08/08 12:51:49;;;;;;;3.00;2.30;;;26.80;15.10;;;;;;5128341;27;20194;-83
2022/08/08 12:54:22;;;;;;;3.92;2.58;;;26.40;14.90;;;;;;5133292;27;20199;-83
2022/08/08 12:56:50;;;;;;;2.63;2.13;;;25.90;15.80;;;;;;5138293;27;20198;-83
2022/08/08 12:59:18;;;;;;;2.85;2.55;;;25.60;17.10;;;;;;5136535;27;20215;-82
2022/08/08 13:01:51;;;;;;;2.30;2.10;;;25.50;17.00;;;;;;5134784;27;20199;-80
2022/08/08 13:04:28;;;;;;;3.13;2.38;;;25.40;17.10;;;;;;5141701;27;20222;-84
2022/08/08 13:06:59;;;;;;;3.05;2.00;;;25.20;18.10;;;;;;5131593;27;20194;-85
2022/08/08 13:09:39;;;;;;;2.40;2.20;;;25.20;17.90;;;;;;5137725;27;20195;-87
2022/08/08 13:12:27;;;;;;;2.70;2.50;;;25.30;17.40;;;;;;5128096;27;20203;-87
2022/08/08 13:14:56;;;;;;;4.25;2.30;;;25.20;18.00;;;;;;5128393;27;20227;-83
2022/08/08 13:17:25;;;;;;;3.83;2.22;;;25.30;17.00;;;;;;5127177;27;20233;-84
2022/08/08 13:19:53;;;;;;;3.05;2.13;;;25.70;17.10;;;;;;5129613;27;20215;-85
2022/08/08 13:22:46;;;;;;;2.60;2.40;;;25.90;16.50;;;;;;5132436;27;20190;-85
2022/08/08 13:25:16;;;;;;;3.45;2.17;;;25.90;14.80;;;;;;5136297;27;20203;-82
2022/08/08 13:27:43;;;;;;;3.08;2.10;;;25.70;15.90;;;;;;5137491;27;20196;-82
2022/08/08 13:30:14;;;;;;;5.15;2.30;;;25.90;14.70;;;;;;5136855;27;20206;-82
2022/08/08 13:32:41;;;;;;;3.47;1.98;;;25.70;16.00;;;;;;5129779;27;20212;-82
2022/08/08 13:35:10;;;;;;;2.40;2.00;;;25.60;16.90;;;;;;5134465;27;20208;-82
2022/08/08 13:37:40;;;;;;;2.50;2.30;;;25.60;16.80;;;;;;5130478;27;20261;-85
2022/08/08 13:40:09;;;;;;;4.07;2.30;;;25.70;16.90;;;;;;5130497;27;20227;-84